createdAt,value
2023-04-05T00:01:33.836Z,-0.40
2023-04-05T00:04:02.863Z,-0.10
2023-04-05T00:06:32.668Z,-0.40
2023-04-05T00:09:04.010Z,-0.80
2023-04-05T00:11:34.222Z,-0.10
2023-04-05T00:21:40.938Z,-0.30
2023-04-05T00:24:15.335Z,-0.40
2023-04-05T00:26:45.103Z,-0.40
2023-04-05T00:29:13.195Z,-0.40
2023-04-05T00:31:41.348Z,-0.40
2023-04-05T00:34:10.366Z,-0.80
2023-04-05T00:36:39.830Z,-0.30
2023-04-05T00:39:07.865Z,-0.30
2023-04-05T00:41:36.707Z,-0.20
2023-04-05T00:44:51.427Z,0.10
2023-04-05T00:51:09.527Z,-0.50
2023-04-05T00:53:39.496Z,-0.60
2023-04-05T00:56:08.907Z,-0.50
2023-04-05T00:58:37.009Z,-0.70
2023-04-05T01:01:13.864Z,-0.70
2023-04-05T01:03:46.242Z,0.50
2023-04-05T01:06:30.195Z,-0.60
2023-04-05T01:09:06.457Z,-0.60
2023-04-05T01:11:36.371Z,-0.50
2023-04-05T01:14:04.496Z,-0.20
2023-04-05T01:16:32.591Z,-0.60
2023-04-05T01:19:00.853Z,-0.50
2023-04-05T01:21:58.586Z,-0.70
2023-04-05T01:24:39.672Z,1.60
2023-04-05T01:27:11.542Z,-0.40
2023-04-05T01:33:41.398Z,-0.40
2023-04-05T01:36:34.675Z,-0.40
2023-04-05T01:39:05.478Z,-0.50
2023-04-05T01:41:33.786Z,-0.40
2023-04-05T01:44:01.881Z,-0.30
2023-04-05T01:46:29.960Z,-0.40
2023-04-05T01:56:35.281Z,-0.70
2023-04-05T01:59:03.436Z,-0.80
2023-04-05T02:01:31.522Z,-0.80
2023-04-05T02:03:59.679Z,-0.90
2023-04-05T02:10:10.078Z,-1.00
2023-04-05T02:16:20.923Z,-1.00
2023-04-05T02:18:51.042Z,-1.00
2023-04-05T02:21:21.862Z,-0.90
2023-04-05T02:23:49.972Z,-1.00
2023-04-05T02:26:18.062Z,-1.00
2023-04-05T02:28:46.230Z,-0.90
2023-04-05T02:31:15.765Z,-0.90
2023-04-05T02:33:45.461Z,-0.50
2023-04-05T02:40:01.233Z,-0.80
2023-04-05T02:42:29.327Z,-0.90
2023-04-05T02:44:57.368Z,-0.90
2023-04-05T02:47:25.531Z,-1.00
2023-04-05T02:50:22.623Z,-1.00
2023-04-05T02:52:50.997Z,-1.20
2023-04-05T02:55:19.341Z,-1.20
2023-04-05T02:57:47.433Z,-1.20
2023-04-05T03:00:16.619Z,-1.10
2023-04-05T03:02:44.708Z,-1.20
2023-04-05T03:05:14.049Z,-1.10
2023-04-05T03:07:46.853Z,-1.20
2023-04-05T03:10:18.731Z,-1.20
2023-04-05T03:13:58.048Z,-1.30
2023-04-05T03:16:26.186Z,-1.50
2023-04-05T03:18:54.255Z,-1.60
2023-04-05T03:21:22.389Z,-1.60
2023-04-05T03:27:39.649Z,-1.50
2023-04-05T03:30:09.021Z,-1.60
2023-04-05T03:32:37.043Z,-1.50
2023-04-05T03:35:05.518Z,-1.50
2023-04-05T03:37:33.594Z,-1.40
2023-04-05T03:40:01.711Z,-1.70
2023-04-05T03:42:29.917Z,-1.40
2023-04-05T03:44:59.971Z,-1.40
2023-04-05T03:47:28.152Z,-1.80
2023-04-05T03:49:56.312Z,-1.50
2023-04-05T03:52:24.321Z,-1.50
2023-04-05T03:54:52.418Z,-1.80
2023-04-05T03:57:21.423Z,-1.90
2023-04-05T03:59:49.624Z,-1.70
2023-04-05T04:02:19.164Z,-1.70
2023-04-05T04:08:35.359Z,-1.80
2023-04-05T04:11:03.446Z,-1.80
2023-04-05T04:13:31.473Z,-1.60
2023-04-05T04:15:59.575Z,-1.90
2023-04-05T04:18:29.038Z,-1.40
2023-04-05T04:20:58.651Z,-2.00
2023-04-05T04:23:27.313Z,-2.00
2023-04-05T04:25:55.923Z,-1.40
2023-04-05T04:28:25.170Z,-2.00
2023-04-05T04:30:53.201Z,-2.00
2023-04-05T04:33:21.242Z,-2.00
2023-04-05T04:35:50.739Z,-2.00
2023-04-05T04:38:20.587Z,-1.90
2023-04-05T04:52:10.468Z,-2.00
2023-04-05T04:54:42.491Z,-2.10
2023-04-05T04:57:10.629Z,-2.10
2023-04-05T04:59:38.788Z,-2.10
2023-04-05T05:02:08.229Z,-2.20
2023-04-05T05:04:36.456Z,-2.20
2023-04-05T05:07:04.586Z,-2.30
2023-04-05T05:09:34.040Z,-2.30
2023-04-05T05:12:02.077Z,-2.30
2023-04-05T05:14:30.171Z,-2.20
2023-04-05T05:16:59.193Z,-2.20
2023-04-05T05:19:27.486Z,-2.30
2023-04-05T05:27:07.075Z,-2.40
2023-04-05T05:29:35.222Z,-2.50
2023-04-05T05:32:03.358Z,-2.50
2023-04-05T05:39:40.713Z,-2.20
2023-04-05T05:42:10.249Z,-2.10
2023-04-05T05:44:38.587Z,-1.90
2023-04-05T05:47:06.781Z,-2.00
2023-04-05T05:49:34.856Z,-1.80
2023-04-05T05:52:03.949Z,-1.60
2023-04-05T05:54:31.984Z,-1.60
2023-04-05T06:01:01.348Z,-1.30
2023-04-05T06:03:29.855Z,-1.10
2023-04-05T06:05:59.637Z,-1.00
2023-04-05T06:08:28.581Z,-1.00
2023-04-05T06:10:56.884Z,-0.80
2023-04-05T06:13:25.332Z,-0.80
2023-04-05T06:15:53.376Z,-0.60
2023-04-05T06:18:22.791Z,-0.50
2023-04-05T06:20:51.099Z,-0.40
2023-04-05T06:23:19.153Z,-0.30
2023-04-05T06:25:47.228Z,-0.20
2023-04-05T06:28:15.336Z,-0.10
2023-04-05T06:30:43.461Z,0.00
2023-04-05T06:33:11.533Z,0.00
2023-04-05T06:35:41.160Z,0.10
2023-04-05T06:41:50.382Z,0.30
2023-04-05T06:44:18.444Z,0.40
2023-04-05T06:46:46.657Z,0.60
2023-04-05T06:49:14.747Z,0.60
2023-04-05T06:52:24.226Z,0.70
2023-04-05T06:54:53.803Z,0.90
2023-04-05T06:57:21.913Z,1.00
2023-04-05T06:59:49.925Z,0.90
2023-04-05T07:06:05.290Z,0.60
2023-04-05T07:08:34.257Z,1.50
2023-04-05T07:11:03.782Z,1.60
2023-04-05T07:13:31.855Z,1.70
2023-04-05T07:16:04.065Z,1.80
2023-04-05T07:18:32.374Z,1.90
2023-04-05T07:24:48.622Z,2.10
2023-04-05T07:27:18.399Z,2.10
2023-04-05T07:29:48.295Z,2.30
2023-04-05T07:36:07.907Z,2.40
2023-04-05T07:39:21.251Z,2.50
2023-04-05T07:45:41.821Z,2.70
2023-04-05T07:48:10.055Z,2.70
2023-04-05T07:50:40.603Z,2.90
2023-04-05T07:53:09.217Z,2.80
2023-04-05T07:55:39.243Z,2.90
2023-04-05T07:58:07.387Z,3.00
2023-04-05T08:00:35.447Z,3.00
2023-04-05T08:03:05.921Z,3.10
2023-04-05T08:05:34.257Z,3.10
2023-04-05T08:08:02.391Z,3.30
2023-04-05T08:10:30.413Z,3.40
2023-04-05T08:12:58.418Z,3.50
2023-04-05T08:15:26.974Z,3.50
2023-04-05T08:17:55.059Z,3.60
2023-04-05T08:20:24.495Z,3.70
2023-04-05T08:22:52.588Z,3.90
2023-04-05T08:25:20.710Z,4.00
2023-04-05T08:27:48.743Z,4.00
2023-04-05T08:30:19.926Z,3.90
2023-04-05T08:32:48.019Z,4.00
2023-04-05T08:35:16.298Z,4.10
2023-04-05T08:37:47.533Z,4.20
2023-04-05T08:40:15.897Z,4.30
2023-04-05T08:42:50.535Z,4.20
2023-04-05T08:45:20.660Z,4.20
2023-04-05T08:47:53.377Z,4.30
2023-04-05T08:50:21.610Z,4.40
2023-04-05T08:52:51.162Z,4.50
2023-04-05T08:55:19.371Z,4.40
2023-04-05T08:57:51.671Z,4.70
2023-04-05T09:00:20.656Z,4.90
2023-04-05T09:02:55.715Z,5.00
2023-04-05T09:05:25.027Z,5.20
2023-04-05T09:07:55.031Z,5.30
2023-04-05T09:10:24.784Z,5.30
2023-04-05T09:12:54.033Z,5.40
2023-04-05T09:15:24.355Z,5.70
2023-04-05T09:17:53.272Z,5.50
2023-04-05T09:20:21.618Z,5.50
2023-04-05T09:22:49.693Z,5.60
2023-04-05T09:25:36.436Z,5.70
2023-04-05T09:28:04.515Z,5.80
2023-04-05T09:30:33.551Z,5.70
2023-04-05T09:33:01.775Z,5.80
2023-04-05T09:35:31.631Z,5.80
2023-04-05T09:38:01.841Z,5.90
2023-04-05T09:40:44.952Z,5.90
2023-04-05T09:43:13.890Z,6.00
2023-04-05T09:45:42.946Z,6.20
2023-04-05T09:48:11.211Z,6.10
2023-04-05T09:50:39.790Z,6.00
2023-04-05T09:53:09.683Z,5.80
2023-04-05T09:55:38.300Z,5.60
2023-04-05T09:58:13.374Z,5.70
2023-04-05T10:00:55.673Z,5.70
2023-04-05T10:03:28.564Z,5.70
2023-04-05T10:05:57.080Z,5.60
2023-04-05T10:08:26.137Z,5.60
2023-04-05T10:10:56.342Z,5.60
2023-04-05T10:13:25.995Z,5.90
2023-04-05T10:15:56.988Z,6.10
2023-04-05T10:18:31.133Z,6.20
2023-04-05T10:21:01.275Z,6.40
2023-04-05T10:23:32.191Z,6.50
2023-04-05T10:26:09.415Z,6.40
2023-04-05T10:28:44.303Z,6.30
2023-04-05T10:31:27.005Z,6.50
2023-04-05T10:34:06.971Z,6.60
2023-04-05T10:36:43.402Z,6.80
2023-04-05T10:39:15.758Z,6.80
2023-04-05T10:41:48.345Z,6.60
2023-04-05T10:44:25.792Z,6.80
2023-04-05T10:46:56.394Z,7.00
2023-04-05T10:49:35.421Z,6.90
2023-04-05T10:52:03.962Z,7.00
2023-04-05T10:54:34.739Z,7.20
2023-04-05T10:57:07.634Z,7.30
2023-04-05T10:59:44.061Z,7.00
2023-04-05T11:02:13.213Z,6.60
2023-04-05T11:04:42.369Z,6.70
2023-04-05T11:07:16.033Z,6.80
2023-04-05T11:10:02.901Z,7.20
2023-04-05T11:13:04.885Z,7.40
2023-04-05T11:15:36.048Z,7.50
2023-04-05T11:18:09.870Z,7.70
2023-04-05T11:20:48.788Z,7.80
2023-04-05T11:23:19.734Z,7.70
2023-04-05T11:25:51.053Z,7.50
2023-04-05T11:28:29.501Z,7.50
2023-04-05T11:31:12.624Z,7.20
2023-04-05T11:33:58.561Z,7.10
2023-04-05T11:36:37.822Z,7.10
2023-04-05T11:39:25.293Z,7.40
2023-04-05T11:42:12.797Z,7.60
2023-04-05T11:44:43.671Z,7.60
2023-04-05T11:47:13.529Z,7.60
2023-04-05T11:49:42.688Z,7.80
2023-04-05T11:52:15.961Z,8.00
2023-04-05T11:54:47.137Z,8.20
2023-04-05T11:57:17.373Z,8.40
2023-04-05T11:59:45.632Z,8.20
2023-04-05T12:02:15.698Z,8.30
2023-04-05T12:04:43.862Z,8.40
2023-04-05T12:07:16.878Z,8.20
2023-04-05T12:10:05.886Z,8.10
2023-04-05T12:12:39.072Z,7.80
2023-04-05T12:15:10.714Z,7.80
2023-04-05T12:17:41.701Z,7.80
2023-04-05T12:20:11.418Z,8.10
2023-04-05T12:22:41.573Z,8.30
2023-04-05T12:25:11.041Z,8.30
2023-04-05T12:27:40.158Z,8.40
2023-04-05T12:30:15.752Z,8.50
2023-04-05T12:32:51.627Z,8.70
2023-04-05T12:35:45.872Z,8.80
2023-04-05T12:49:26.693Z,9.20
2023-04-05T12:51:56.681Z,9.30
2023-04-05T12:58:13.818Z,9.00
2023-04-05T13:01:01.553Z,9.10
2023-04-05T13:17:00.886Z,9.70
2023-04-05T13:19:30.461Z,9.80
2023-04-05T13:21:58.564Z,9.80
2023-04-05T13:24:26.634Z,9.80
2023-04-05T13:26:54.671Z,10.00
2023-04-05T13:37:14.019Z,10.90
2023-04-05T13:39:42.050Z,10.70
2023-04-05T13:42:10.159Z,10.70
2023-04-05T13:44:39.191Z,10.80
2023-04-05T13:47:07.232Z,11.10
2023-04-05T13:49:35.307Z,11.50
2023-04-05T13:52:03.502Z,11.50
2023-04-05T13:55:02.100Z,11.90
2023-04-05T14:01:19.137Z,13.40
2023-04-05T14:03:48.517Z,13.90
2023-04-05T14:06:16.841Z,14.20
2023-04-05T14:08:44.898Z,14.00
2023-04-05T14:11:14.454Z,14.00
2023-04-05T14:13:43.933Z,14.50
2023-04-05T14:16:12.392Z,13.90
2023-04-05T14:19:08.855Z,14.60
2023-04-05T14:25:39.715Z,16.30
2023-04-05T14:31:57.559Z,15.70
2023-04-05T14:34:25.721Z,16.10
2023-04-05T14:36:56.635Z,16.80
2023-04-05T14:39:24.855Z,17.20
2023-04-05T14:41:54.155Z,17.80
2023-04-05T14:44:22.413Z,17.70
2023-04-05T14:46:52.032Z,17.70
2023-04-05T14:49:21.754Z,17.60
2023-04-05T14:51:50.072Z,17.70
2023-04-05T14:54:18.545Z,17.20
2023-04-05T14:56:46.714Z,16.80
2023-04-05T14:59:14.962Z,16.10
2023-04-05T15:01:45.540Z,15.40
2023-04-05T15:51:32.274Z,18.40
2023-04-05T15:54:00.476Z,17.40
2023-04-05T15:56:30.486Z,16.30
2023-04-05T15:58:58.970Z,14.80
2023-04-05T16:01:27.250Z,13.70
2023-04-05T16:03:55.597Z,13.00
2023-04-05T16:06:28.016Z,12.50
2023-04-05T16:08:56.259Z,12.10
2023-04-05T16:11:24.683Z,11.50
2023-04-05T16:13:55.127Z,11.10
2023-04-05T16:16:34.763Z,11.00
2023-04-05T16:19:10.520Z,11.00
2023-04-05T16:21:38.697Z,11.00
2023-04-05T16:24:07.774Z,10.90
2023-04-05T16:26:36.186Z,10.90
2023-04-05T16:29:05.764Z,10.70
2023-04-05T16:31:35.756Z,10.60
2023-04-05T16:34:03.977Z,10.50
2023-04-05T16:36:32.191Z,10.40
2023-04-05T16:39:00.521Z,10.40
2023-04-05T16:41:28.865Z,10.40
2023-04-05T16:43:57.010Z,10.30
2023-04-05T16:46:28.154Z,10.10
2023-04-05T16:48:56.382Z,10.10
2023-04-05T16:51:24.532Z,10.00
2023-04-05T16:53:52.727Z,10.00
2023-04-05T16:56:21.368Z,9.90
2023-04-05T16:58:49.504Z,9.90
2023-04-05T17:01:17.660Z,9.90
2023-04-05T17:03:47.704Z,9.90
2023-04-05T17:06:16.306Z,9.80
2023-04-05T17:08:44.452Z,9.70
2023-04-05T17:11:12.709Z,9.70
2023-04-05T17:13:41.905Z,9.70
2023-04-05T17:16:10.152Z,9.50
2023-04-05T17:18:38.320Z,9.30
2023-04-05T17:21:08.366Z,9.20
2023-04-05T17:23:36.516Z,9.20
2023-04-05T17:26:04.886Z,9.00
2023-04-05T17:28:33.417Z,9.00
2023-04-05T17:31:01.647Z,8.90
2023-04-05T17:33:29.834Z,8.90
2023-04-05T17:35:58.252Z,8.80
2023-04-05T17:38:28.017Z,8.80
2023-04-05T17:40:57.287Z,8.80
2023-04-05T17:43:25.521Z,8.80
2023-04-05T17:45:54.411Z,8.80
2023-04-05T17:48:22.704Z,8.70
2023-04-05T17:50:55.682Z,8.70
2023-04-05T17:53:23.807Z,8.40
2023-04-05T17:55:56.361Z,8.60
2023-04-05T17:58:24.478Z,8.50
2023-04-05T18:00:53.177Z,8.40
2023-04-05T18:03:21.716Z,8.30
2023-04-05T18:05:52.668Z,8.00
2023-04-05T18:08:21.226Z,7.50
2023-04-05T18:10:50.727Z,7.20
2023-04-05T18:13:20.273Z,7.00
2023-04-05T18:15:48.435Z,6.40
2023-04-05T18:18:16.793Z,6.20
2023-04-05T18:20:44.932Z,6.10
2023-04-05T18:23:13.041Z,6.00
2023-04-05T18:25:41.425Z,6.00
2023-04-05T18:28:21.514Z,6.00
2023-04-05T18:30:52.837Z,5.80
2023-04-05T18:33:22.489Z,5.60
2023-04-05T18:35:51.493Z,5.30
2023-04-05T18:38:19.872Z,5.00
2023-04-05T18:40:49.187Z,4.80
2023-04-05T18:43:17.763Z,4.80
2023-04-05T18:45:45.948Z,4.70
2023-04-05T18:48:15.506Z,4.70
2023-04-05T18:50:43.682Z,4.70
2023-04-05T18:53:11.812Z,4.60
2023-04-05T18:55:39.982Z,4.50
2023-04-05T18:58:08.287Z,4.20
2023-04-05T19:00:36.472Z,4.00
2023-04-05T19:03:04.718Z,3.80
2023-04-05T19:05:34.323Z,3.70
2023-04-05T19:08:02.458Z,3.70
2023-04-05T19:10:31.786Z,3.50
2023-04-05T19:12:59.960Z,3.40
2023-04-05T19:15:28.073Z,3.30
2023-04-05T19:17:56.236Z,3.20
2023-04-05T19:20:24.435Z,3.30
2023-04-05T19:22:53.971Z,3.30
2023-04-05T19:25:22.176Z,3.30
2023-04-05T19:27:50.729Z,3.30
2023-04-05T19:30:19.385Z,3.30
2023-04-05T19:32:47.590Z,3.20
2023-04-05T19:35:15.846Z,3.20
2023-04-05T19:37:43.965Z,3.00
2023-04-05T19:40:13.836Z,2.70
2023-04-05T19:42:47.330Z,2.50
2023-04-05T19:45:22.057Z,2.50
2023-04-05T19:47:50.860Z,2.40
2023-04-05T19:50:46.203Z,2.40
2023-04-05T19:53:43.426Z,2.50
2023-04-05T19:56:20.337Z,2.40
2023-04-05T19:58:50.101Z,2.40
2023-04-05T20:01:37.359Z,2.40
2023-04-05T20:04:13.146Z,2.30
2023-04-05T20:06:42.550Z,2.10
2023-04-05T20:09:11.497Z,2.00
2023-04-05T20:11:41.115Z,1.90
2023-04-05T20:14:10.375Z,1.80
2023-04-05T20:16:40.184Z,1.90
2023-04-05T20:19:10.143Z,1.90
2023-04-05T20:21:39.230Z,2.00
2023-04-05T20:24:10.381Z,2.00
2023-04-05T20:26:39.958Z,2.00
2023-04-05T20:29:09.935Z,1.80
2023-04-05T20:31:40.096Z,1.70
2023-04-05T20:34:11.375Z,1.60
2023-04-05T20:36:44.461Z,1.50
2023-04-05T20:39:12.824Z,1.40
2023-04-05T20:41:42.752Z,1.40
2023-04-05T20:44:10.910Z,1.30
2023-04-05T20:46:39.325Z,1.20
2023-04-05T20:49:07.816Z,1.30
2023-04-05T20:51:36.351Z,1.30
2023-04-05T20:54:04.884Z,1.20
2023-04-05T20:56:33.709Z,1.20
2023-04-05T20:59:03.254Z,1.20
2023-04-05T21:01:31.616Z,1.30
2023-04-05T21:03:59.827Z,1.20
2023-04-05T21:06:27.968Z,1.20
2023-04-05T21:08:56.085Z,1.20
2023-04-05T21:11:24.229Z,1.20
2023-04-05T21:13:52.607Z,1.20
2023-04-05T21:16:22.205Z,1.30
2023-04-05T21:18:50.377Z,1.40
2023-04-05T21:21:18.535Z,1.40
2023-04-05T21:23:46.691Z,1.40
2023-04-05T21:26:14.884Z,1.40
2023-04-05T21:28:43.008Z,1.40
2023-04-05T21:31:11.196Z,1.30
2023-04-05T21:33:41.603Z,1.20
2023-04-05T21:36:09.867Z,1.00
2023-04-05T21:38:38.031Z,0.90
2023-04-05T21:41:06.244Z,0.90
2023-04-05T21:43:34.347Z,0.80
2023-04-05T21:46:02.603Z,0.80
2023-04-05T21:48:30.705Z,0.80
2023-04-05T21:51:00.306Z,0.90
2023-04-05T21:53:28.468Z,0.80
2023-04-05T21:55:56.671Z,0.70
2023-04-05T21:58:26.367Z,0.70
2023-04-05T22:00:54.537Z,0.60
2023-04-05T22:03:22.794Z,0.70
2023-04-05T22:05:51.031Z,0.70
2023-04-05T22:08:20.623Z,0.80
2023-04-05T22:10:48.998Z,0.80
2023-04-05T22:13:17.118Z,0.70
2023-04-05T22:15:45.889Z,0.70
2023-04-05T22:18:14.418Z,0.70
2023-04-05T22:20:42.597Z,0.70
2023-04-05T22:23:10.845Z,0.70
2023-04-05T22:25:40.372Z,0.70
2023-04-05T22:28:08.621Z,0.60
2023-04-05T22:30:43.938Z,0.50
2023-04-05T22:33:13.776Z,0.50
2023-04-05T22:35:42.587Z,0.50
2023-04-05T22:38:10.887Z,0.50
2023-04-05T22:40:40.542Z,0.40
2023-04-05T22:43:09.676Z,0.30
2023-04-05T22:45:37.966Z,0.30
2023-04-05T22:48:07.209Z,0.30
2023-04-05T22:50:35.606Z,0.30
2023-04-05T22:53:03.761Z,0.40
2023-04-05T22:55:31.921Z,0.40
2023-04-05T22:58:01.482Z,0.40
2023-04-05T23:00:29.563Z,0.40
2023-04-05T23:02:57.792Z,0.30
2023-04-05T23:05:26.630Z,0.20
2023-04-05T23:07:54.768Z,0.10
2023-04-05T23:10:23.082Z,0.20
2023-04-05T23:12:51.285Z,0.20
2023-04-05T23:15:21.293Z,0.20
2023-04-05T23:17:49.742Z,0.30
2023-04-05T23:20:18.066Z,0.30
2023-04-05T23:22:46.234Z,0.40
2023-04-05T23:25:14.358Z,0.50
2023-04-05T23:27:45.024Z,0.40
2023-04-05T23:30:14.015Z,0.20
2023-04-05T23:32:48.889Z,-0.10
2023-04-05T23:35:17.211Z,-0.20
2023-04-05T23:37:45.644Z,-0.30
2023-04-05T23:40:14.175Z,-0.30
2023-04-05T23:42:42.315Z,-0.20
2023-04-05T23:45:11.503Z,-0.20
2023-04-05T23:47:39.786Z,-0.30
2023-04-05T23:50:11.211Z,-0.20
2023-04-05T23:52:39.389Z,-0.20
2023-04-05T23:55:08.264Z,-0.30
2023-04-05T23:57:36.395Z,-0.30
